createdAt,value
2017-06-26T00:11:02.475Z,-60
2017-06-26T00:51:02.495Z,-62
2017-06-26T01:11:02.508Z,-60
2017-06-26T01:51:02.485Z,-61
2017-06-26T02:21:02.539Z,-60
2017-06-26T02:31:19.369Z,-60
2017-06-26T02:51:02.516Z,-59
2017-06-26T03:11:02.518Z,-59
2017-06-26T03:51:31.800Z,-60
2017-06-26T04:51:02.600Z,-61
2017-06-26T05:11:02.521Z,-59
2017-06-26T05:51:02.523Z,-60
2017-06-26T06:11:02.529Z,-61
2017-06-26T06:51:02.553Z,-60
2017-06-26T07:11:02.528Z,-60
2017-06-26T07:21:02.748Z,-63
2017-06-26T07:31:02.553Z,-62
2017-06-26T07:41:02.647Z,-64
2017-06-26T07:51:02.610Z,-60
2017-06-26T08:01:02.536Z,-62
2017-06-26T08:11:02.533Z,-63
2017-06-26T08:21:02.873Z,-63
2017-06-26T08:31:02.545Z,-63
2017-06-26T08:41:02.555Z,-64
2017-06-26T08:51:02.543Z,-62
2017-06-26T09:01:02.558Z,-64
2017-06-26T09:11:02.561Z,-63
2017-06-26T09:21:02.904Z,-64
2017-06-26T09:31:02.709Z,-63
2017-06-26T09:41:02.692Z,-65
2017-06-26T09:51:02.549Z,-63
2017-06-26T10:01:02.690Z,-63
2017-06-26T10:11:02.642Z,-64
2017-06-26T10:21:02.674Z,-64
2017-06-26T10:31:03.126Z,-63
2017-06-26T10:41:02.785Z,-65
2017-06-26T10:51:02.686Z,-65
2017-06-26T11:01:03.373Z,-63
2017-06-26T11:11:03.059Z,-63
2017-06-26T11:21:12.673Z,-64
2017-06-26T11:31:02.718Z,-63
2017-06-26T11:41:02.664Z,-64
2017-06-26T11:51:02.695Z,-63
2017-06-26T12:01:02.651Z,-64
2017-06-26T12:11:03.031Z,-64
2017-06-26T12:21:02.674Z,-63
2017-06-26T12:31:02.604Z,-57
2017-06-26T12:41:02.692Z,-59
2017-06-26T12:51:03.070Z,-58
2017-06-26T13:01:03.423Z,-56
2017-06-26T13:11:02.794Z,-55
2017-06-26T13:21:02.687Z,-56
2017-06-26T13:31:03.737Z,-59
2017-06-26T13:41:02.686Z,-54
2017-06-26T13:51:02.702Z,-60
2017-06-26T14:01:02.691Z,-66
2017-06-26T14:11:03.059Z,-69
2017-06-26T14:21:02.763Z,-59
2017-06-26T14:31:02.690Z,-62
2017-06-26T14:41:02.728Z,-61
2017-06-26T14:51:02.722Z,-58
2017-06-26T15:01:03.315Z,-57
2017-06-26T15:11:05.415Z,-57
2017-06-26T15:21:03.689Z,-57
2017-06-26T15:31:02.676Z,-60
2017-06-26T15:41:02.708Z,-58
2017-06-26T15:51:02.712Z,-61
2017-06-26T16:01:04.344Z,-64
2017-06-26T16:11:02.680Z,-59
2017-06-26T16:21:02.843Z,-60
2017-06-26T16:31:02.743Z,-59
2017-06-26T16:41:03.063Z,-63
2017-06-26T16:51:02.663Z,-58
2017-06-26T17:01:02.696Z,-58
2017-06-26T17:11:02.654Z,-58
2017-06-26T17:21:02.663Z,-59
2017-06-26T17:31:02.677Z,-58
2017-06-26T17:41:02.672Z,-58
2017-06-26T17:51:02.644Z,-58
2017-06-26T18:01:02.721Z,-59
2017-06-26T18:11:08.963Z,-58
2017-06-26T18:21:07.764Z,-59
2017-06-26T18:31:02.721Z,-59
2017-06-26T18:41:28.508Z,-58
2017-06-26T18:51:27.002Z,-59
2017-06-26T19:01:15.792Z,-57
2017-06-26T19:11:21.828Z,-59
2017-06-26T19:21:03.753Z,-59
2017-06-26T19:31:06.692Z,-59
2017-06-26T19:41:02.959Z,-59
2017-06-26T19:51:03.770Z,-57
2017-06-26T20:01:03.979Z,-59
2017-06-26T20:11:06.367Z,-60
2017-06-26T20:21:12.585Z,-60
2017-06-26T20:31:06.919Z,-58
2017-06-26T20:41:02.682Z,-59
2017-06-26T20:51:03.785Z,-59
2017-06-26T21:01:02.763Z,-57
2017-06-26T21:11:04.581Z,-55
2017-06-26T21:21:02.822Z,-57
2017-06-26T21:31:03.000Z,-56
2017-06-26T21:41:02.782Z,-57
2017-06-26T21:51:02.721Z,-57
2017-06-26T22:01:02.909Z,-64
2017-06-26T22:11:02.773Z,-64
2017-06-26T22:21:12.486Z,-62
2017-06-26T22:31:02.743Z,-64
2017-06-26T22:41:02.792Z,-64
2017-06-26T22:51:02.886Z,-58
2017-06-26T23:01:02.743Z,-57
2017-06-26T23:11:02.701Z,-59
2017-06-26T23:21:02.773Z,-58
2017-06-26T23:31:02.747Z,-58
2017-06-26T23:41:02.753Z,-57
2017-06-26T23:51:02.773Z,-54
